Time;durP1;ratioP1;P1;durP2;ratioP2;P2;SDS_P1;SDS_P2;PMS_P1;PMS_P2;Temp;Humidity;BMP_temperature;BMP_pressure;BME280_temperature;BME280_humidity;BME280_pressure;Samples;Min_cycle;Max_cycle;Signal;HPM_P1;HPM_P2
2021/01/17 09:29:20;;;;;;;;;;;;;;;;;;;;;
2021/01/17 09:35:43;;;;;;;;;;;;;;;;;;;;;
2021/01/17 09:41:27;;;;;;;20.80;16.08;;;2.60;99.90;;;;;;4786134;29;20235;-85
2021/01/17 09:43:53;;;;;;;23.27;16.48;;;2.70;99.90;;;;;;4795053;29;20207;-84
2021/01/17 09:46:21;;;;;;;19.55;14.90;;;2.70;99.90;;;;;;4842740;29;20202;-82
2021/01/17 09:48:58;;;;;;;18.00;13.68;;;2.80;99.90;;;;;;4897754;29;20241;-84
2021/01/17 09:51:35;;;;;;;;;;;;;;;;;;;;;
2021/01/17 09:54:05;;;;;;;18.70;13.52;;;2.90;99.90;;;;;;4895845;29;20630;-83
2021/01/17 09:56:43;;;;;;;16.92;13.48;;;3.00;99.90;;;;;;4899041;29;20569;-84
2021/01/17 09:59:19;;;;;;;19.55;14.93;;;3.00;99.90;;;;;;4899553;29;20200;-84
2021/01/17 10:01:50;;;;;;;18.77;13.77;;;3.10;99.90;;;;;;4902940;29;20234;-84
2021/01/17 10:04:30;;;;;;;17.58;14.32;;;3.20;99.90;;;;;;4903370;29;20195;-84
2021/01/17 10:06:59;;;;;;;20.60;11.80;;;3.20;99.90;;;;;;4902794;29;20669;-83
2021/01/17 10:09:28;;;;;;;17.25;15.50;;;3.20;99.90;;;;;;4903347;29;20256;-84
2021/01/17 10:12:00;;;;;;;19.25;13.13;;;3.20;99.90;;;;;;4904202;29;20319;-84
2021/01/17 10:14:30;;;;;;;15.52;10.98;;;3.20;99.90;;;;;;4903470;29;20196;-84
2021/01/17 10:16:58;;;;;;;14.00;12.65;;;3.20;99.90;;;;;;4911225;29;20219;-82
2021/01/17 10:19:25;;;;;;;21.77;13.18;;;3.20;99.90;;;;;;4917410;29;20204;-82
2021/01/17 10:21:52;;;;;;;13.18;9.93;;;3.20;99.90;;;;;;4917106;29;20231;-83
2021/01/17 10:24:26;;;;;;;15.85;11.88;;;3.20;99.90;;;;;;4916759;29;20215;-82
2021/01/17 10:26:55;;;;;;;15.52;12.40;;;3.30;99.90;;;;;;4909939;29;20203;-83
2021/01/17 10:29:23;;;;;;;16.10;11.55;;;3.30;99.90;;;;;;4910994;29;20581;-83
2021/01/17 10:31:57;;;;;;;15.93;12.30;;;3.30;99.90;;;;;;4918912;29;20228;-82
2021/01/17 10:34:25;;;;;;;20.50;12.25;;;3.30;99.90;;;;;;4918692;29;20211;-83
2021/01/17 10:36:58;;;;;;;13.88;11.30;;;3.30;99.90;;;;;;4914802;29;20225;-83
2021/01/17 10:39:25;;;;;;;16.13;11.35;;;3.30;99.90;;;;;;4910144;29;20212;-83
2021/01/17 10:42:02;;;;;;;15.40;12.57;;;3.30;99.90;;;;;;4909976;29;20254;-81
2021/01/17 10:44:33;;;;;;;16.95;12.68;;;3.40;99.90;;;;;;4910898;29;20230;-83
2021/01/17 10:47:06;;;;;;;20.15;11.80;;;3.40;99.90;;;;;;4911410;29;20211;-83
2021/01/17 10:49:36;;;;;;;15.63;11.30;;;3.50;99.90;;;;;;4910073;29;20676;-83
2021/01/17 10:52:16;;;;;;;17.42;11.80;;;3.40;99.90;;;;;;4909441;29;20248;-83
2021/01/17 10:54:43;;;;;;;17.58;11.80;;;3.50;99.90;;;;;;4910195;29;20223;-82
2021/01/17 10:57:12;;;;;;;18.70;15.20;;;3.60;99.90;;;;;;4911684;29;20219;-83
2021/01/17 10:59:42;;;;;;;18.13;12.52;;;3.60;99.90;;;;;;4908423;29;20243;-82
2021/01/17 11:02:19;;;;;;;14.20;12.75;;;3.60;99.90;;;;;;4907801;29;20218;-82
2021/01/17 11:04:52;;;;;;;16.25;11.70;;;3.50;99.90;;;;;;4899279;29;20209;-83
2021/01/17 11:07:26;;;;;;;13.88;10.90;;;3.50;99.90;;;;;;4899605;29;20206;-82
2021/01/17 11:09:54;;;;;;;14.90;12.27;;;3.50;99.90;;;;;;4900159;29;20601;-83
2021/01/17 11:12:38;;;;;;;17.92;11.98;;;3.60;99.90;;;;;;4896261;29;20255;-82
2021/01/17 11:15:15;;;;;;;16.45;13.93;;;3.60;99.90;;;;;;4895917;29;20215;-83
2021/01/17 11:17:43;;;;;;;14.27;12.05;;;3.60;99.90;;;;;;4899439;29;20200;-82
2021/01/17 11:20:12;;;;;;;15.65;12.43;;;3.70;99.90;;;;;;4896985;29;20726;-83
2021/01/17 11:22:42;;;;;;;14.13;11.52;;;3.80;99.90;;;;;;4898422;29;20199;-83
2021/01/17 11:25:30;;;;;;;16.23;11.32;;;3.80;99.90;;;;;;4899753;29;20235;-83
2021/01/17 11:27:58;;;;;;;13.93;11.85;;;3.90;99.90;;;;;;4900115;29;20229;-82
2021/01/17 11:30:31;;;;;;;14.35;10.73;;;4.00;99.90;;;;;;4900444;29;20237;-83
2021/01/17 11:33:12;;;;;;;16.10;10.68;;;4.00;99.90;;;;;;4892352;29;20208;-83
2021/01/17 11:35:39;;;;;;;14.18;12.60;;;4.00;99.90;;;;;;4892977;29;20225;-81
2021/01/17 11:38:06;;;;;;;17.92;10.40;;;4.00;99.90;;;;;;4892585;29;20353;-81
2021/01/17 11:40:32;;;;;;;12.55;11.35;;;4.00;99.90;;;;;;4892450;29;20656;-81
2021/01/17 11:43:10;;;;;;;14.18;11.32;;;3.90;99.90;;;;;;4895497;29;20218;-80
2021/01/17 11:45:42;;;;;;;16.98;11.02;;;4.00;99.90;;;;;;4895306;29;20281;-81
2021/01/17 11:48:10;;;;;;;11.90;10.63;;;3.90;99.90;;;;;;4894151;29;20235;-80
2021/01/17 11:50:41;;;;;;;13.18;11.15;;;3.90;99.90;;;;;;4893828;29;20238;-82
2021/01/17 11:53:09;;;;;;;13.07;10.32;;;4.00;99.90;;;;;;4892466;29;20740;-83
2021/01/17 11:55:35;;;;;;;11.55;10.38;;;4.00;99.90;;;;;;4893205;29;20213;-81
2021/01/17 11:58:12;;;;;;;11.85;9.70;;;3.90;99.90;;;;;;4891882;29;20215;-81
2021/01/17 12:04:28;;;;;;;12.27;10.07;;;3.90;99.90;;;;;;4821809;29;20211;-81
2021/01/17 12:17:36;;;;;;;17.75;12.32;;;3.70;99.90;;;;;;4946704;23;20258;-86
2021/01/17 12:20:23;;;;;;;13.13;10.00;;;3.70;99.90;;;;;;4898603;29;20215;-91
2021/01/17 12:22:50;;;;;;;13.55;9.55;;;3.60;99.90;;;;;;4900505;29;20226;-85
2021/01/17 12:25:16;;;;;;;11.18;9.43;;;3.60;99.90;;;;;;4905007;29;20213;-87
2021/01/17 12:27:43;;;;;;;10.88;9.38;;;3.60;99.90;;;;;;4916895;29;20231;-86
2021/01/17 12:30:10;;;;;;;12.82;9.93;;;3.60;99.90;;;;;;4918970;29;20217;-86
2021/01/17 12:32:36;;;;;;;13.20;9.10;;;3.60;99.90;;;;;;4918184;29;20618;-87
2021/01/17 12:35:03;;;;;;;12.88;7.80;;;3.30;99.90;;;;;;4924752;29;20207;-86
2021/01/17 12:37:30;;;;;;;9.27;7.88;;;3.30;99.90;;;;;;4924708;29;20244;-87
2021/01/17 12:39:57;;;;;;;11.38;8.52;;;3.10;99.90;;;;;;4918552;29;20235;-87
2021/01/17 12:42:35;;;;;;;12.30;8.70;;;3.00;99.90;;;;;;4917868;29;20627;-89
2021/01/17 12:45:02;;;;;;;15.10;10.88;;;3.10;99.90;;;;;;4920213;29;20206;-89
2021/01/17 12:47:28;;;;;;;12.10;8.80;;;3.00;99.90;;;;;;4917795;29;20236;-87
2021/01/17 12:49:54;;;;;;;9.98;7.47;;;3.00;99.90;;;;;;4928804;29;20261;-86
2021/01/17 12:52:20;;;;;;;9.07;6.72;;;2.80;99.90;;;;;;4929550;29;20216;-85
2021/01/17 12:54:47;;;;;;;8.63;7.30;;;2.70;99.90;;;;;;4928519;29;20207;-85
2021/01/17 12:57:14;;;;;;;8.45;7.60;;;2.70;99.90;;;;;;4929070;29;20238;-85
2021/01/17 12:59:40;;;;;;;7.63;6.28;;;2.70;99.90;;;;;;4929208;29;20210;-85
2021/01/17 13:02:06;;;;;;;10.57;8.00;;;2.50;99.90;;;;;;4928348;29;20277;-85
2021/01/17 13:04:32;;;;;;;11.32;8.32;;;2.40;99.90;;;;;;4928589;29;20211;-86
2021/01/17 13:07:03;;;;;;;10.27;7.93;;;2.40;99.90;;;;;;4928461;29;20227;-86
2021/01/17 13:09:30;;;;;;;10.40;8.27;;;2.30;99.90;;;;;;4929369;29;20230;-84
2021/01/17 13:12:03;;;;;;;12.70;11.27;;;2.30;99.90;;;;;;4928199;29;20289;-84
2021/01/17 13:14:29;;;;;;;14.98;12.48;;;2.30;99.90;;;;;;4929625;29;20198;-84
2021/01/17 13:16:55;;;;;;;14.63;12.15;;;2.30;99.90;;;;;;4929546;29;20230;-83
2021/01/17 13:19:21;;;;;;;16.77;11.65;;;2.40;99.90;;;;;;4929382;29;20210;-84
2021/01/17 13:21:48;;;;;;;14.05;10.50;;;2.40;99.90;;;;;;4929346;29;20242;-84
2021/01/17 13:24:14;;;;;;;12.60;9.18;;;2.40;99.90;;;;;;4930040;29;20220;-84
2021/01/17 13:26:40;;;;;;;11.63;8.27;;;2.20;99.90;;;;;;4930846;29;20227;-84
2021/01/17 13:29:07;;;;;;;9.32;8.57;;;2.20;99.90;;;;;;4929979;29;20484;-83
2021/01/17 13:31:33;;;;;;;11.35;8.98;;;2.30;99.90;;;;;;4933488;29;20209;-84
2021/01/17 13:34:00;;;;;;;16.23;12.98;;;2.40;99.90;;;;;;4930426;29;20210;-84
2021/01/17 13:36:26;;;;;;;19.45;14.38;;;2.60;99.90;;;;;;4933982;29;20262;-84
2021/01/17 13:38:52;;;;;;;14.95;12.82;;;2.70;99.90;;;;;;4933394;29;20234;-83
2021/01/17 13:41:18;;;;;;;13.20;10.40;;;2.80;99.90;;;;;;4932158;29;20239;-84
2021/01/17 13:43:44;;;;;;;14.38;12.38;;;2.90;99.90;;;;;;4931483;29;20577;-83
2021/01/17 13:46:13;;;;;;;10.20;9.20;;;3.10;99.90;;;;;;4928843;29;20724;-86
2021/01/17 13:48:40;;;;;;;8.75;7.95;;;3.20;99.90;;;;;;4934151;29;20227;-82
2021/01/17 13:51:06;;;;;;;8.88;7.93;;;3.20;99.90;;;;;;4935225;29;20211;-83
2021/01/17 13:53:33;;;;;;;9.82;8.43;;;3.30;99.90;;;;;;4933096;29;20222;-83
2021/01/17 13:56:00;;;;;;;9.13;8.23;;;3.30;99.90;;;;;;4932079;29;20713;-82
2021/01/17 13:58:26;;;;;;;13.10;9.88;;;3.40;99.90;;;;;;4924734;29;20211;-83
2021/01/17 14:00:52;;;;;;;10.70;8.45;;;3.40;99.90;;;;;;4925263;29;20689;-83
2021/01/17 14:03:19;;;;;;;13.15;10.00;;;3.40;99.90;;;;;;4910216;29;20203;-82
2021/01/17 14:05:45;;;;;;;11.50;10.38;;;3.40;99.90;;;;;;4908138;29;20235;-82
2021/01/17 14:08:12;;;;;;;10.18;9.18;;;3.40;99.90;;;;;;4910850;29;20588;-79
2021/01/17 14:10:38;;;;;;;11.50;7.93;;;3.50;99.90;;;;;;4907815;29;20218;-80
2021/01/17 14:13:04;;;;;;;10.18;9.15;;;3.60;99.90;;;;;;4908707;29;20640;-81
2021/01/17 14:15:30;;;;;;;11.25;8.05;;;3.60;99.90;;;;;;4913245;29;20231;-82
2021/01/17 14:17:57;;;;;;;8.30;7.30;;;3.60;99.90;;;;;;4911722;29;20215;-80
2021/01/17 14:20:25;;;;;;;8.43;6.72;;;3.60;99.90;;;;;;4916152;29;20222;-82
2021/01/17 14:22:52;;;;;;;8.90;7.28;;;3.60;99.90;;;;;;4915696;29;20223;-82
2021/01/17 14:25:20;;;;;;;8.85;7.57;;;3.60;99.90;;;;;;4915675;29;20207;-82
2021/01/17 14:27:46;;;;;;;9.70;8.70;;;3.60;99.90;;;;;;4915628;29;20557;-83
2021/01/17 14:30:13;;;;;;;9.82;8.85;;;3.50;99.90;;;;;;4915191;29;20247;-82
2021/01/17 14:32:40;;;;;;;12.98;9.20;;;3.60;99.90;;;;;;4911388;29;20241;-81
2021/01/17 14:35:08;;;;;;;12.70;10.48;;;3.60;99.90;;;;;;4899069;29;20211;-81
2021/01/17 14:37:36;;;;;;;13.85;9.82;;;3.60;99.90;;;;;;4903349;29;20208;-81
2021/01/17 14:40:03;;;;;;;13.90;10.57;;;3.60;99.90;;;;;;4901363;29;20706;-82
2021/01/17 14:42:29;;;;;;;9.50;8.35;;;3.60;99.90;;;;;;4904289;29;20206;-81
2021/01/17 14:44:56;;;;;;;9.63;8.10;;;3.60;99.90;;;;;;4900163;29;20220;-81
2021/01/17 14:47:22;;;;;;;11.95;8.90;;;3.60;99.90;;;;;;4895502;29;20279;-81
2021/01/17 14:49:48;;;;;;;12.07;10.45;;;3.50;99.90;;;;;;4903468;29;20236;-83
2021/01/17 14:52:14;;;;;;;10.65;9.25;;;3.50;99.90;;;;;;4909101;29;20211;-84
2021/01/17 14:54:41;;;;;;;10.30;9.20;;;3.50;99.90;;;;;;4901682;29;20209;-83
2021/01/17 14:57:10;;;;;;;10.45;9.45;;;3.50;99.90;;;;;;4899225;29;20236;-81
2021/01/17 14:59:36;;;;;;;14.82;11.10;;;3.50;99.90;;;;;;4888201;29;20200;-80
2021/01/17 15:02:03;;;;;;;14.30;9.05;;;3.50;99.90;;;;;;4900434;29;20218;-81
2021/01/17 15:04:30;;;;;;;13.45;9.80;;;3.50;99.90;;;;;;4902982;29;20619;-80
2021/01/17 15:06:59;;;;;;;13.43;10.82;;;3.50;99.90;;;;;;4899147;29;20238;-80
2021/01/17 15:09:25;;;;;;;12.35;10.60;;;3.50;99.90;;;;;;4897118;29;20650;-79
2021/01/17 15:11:53;;;;;;;10.45;9.30;;;3.50;99.90;;;;;;4885198;29;20208;-81
2021/01/17 15:14:20;;;;;;;12.25;11.00;;;3.50;99.90;;;;;;4891563;29;20203;-81
2021/01/17 15:16:46;;;;;;;17.63;11.30;;;3.50;99.90;;;;;;4890847;29;20235;-81
2021/01/17 15:19:12;;;;;;;13.07;9.10;;;3.40;99.90;;;;;;4892894;29;20214;-81
2021/01/17 15:21:39;;;;;;;17.05;12.30;;;3.40;99.90;;;;;;4895599;29;20251;-80
2021/01/17 15:24:08;;;;;;;12.77;9.30;;;3.40;99.90;;;;;;4893021;29;20210;-80
2021/01/17 15:26:35;;;;;;;12.75;10.05;;;3.40;99.90;;;;;;4895441;29;20232;-80
2021/01/17 15:29:02;;;;;;;14.02;10.43;;;3.30;99.90;;;;;;4896322;29;20674;-81
2021/01/17 15:31:28;;;;;;;11.70;9.98;;;3.40;99.90;;;;;;4894292;29;20199;-80
2021/01/17 15:33:54;;;;;;;15.43;11.60;;;3.30;99.90;;;;;;4904878;29;20227;-81
2021/01/17 15:36:20;;;;;;;15.82;12.82;;;3.30;99.90;;;;;;4898762;29;20263;-83
2021/01/17 15:38:49;;;;;;;14.27;12.57;;;3.30;99.90;;;;;;4910790;29;20215;-84
2021/01/17 15:41:23;;;;;;;14.07;12.68;;;3.30;99.90;;;;;;4913019;29;20212;-84
2021/01/17 15:43:50;;;;;;;16.90;14.30;;;3.30;99.90;;;;;;4912626;29;20248;-83
2021/01/17 15:46:17;;;;;;;14.82;13.23;;;3.30;99.90;;;;;;4912664;29;20227;-83
2021/01/17 15:48:45;;;;;;;14.70;11.82;;;3.20;99.90;;;;;;4912921;29;20772;-82
2021/01/17 15:51:12;;;;;;;16.20;12.13;;;3.20;99.90;;;;;;4916331;29;20211;-83
2021/01/17 15:53:38;;;;;;;18.05;12.80;;;3.20;99.90;;;;;;4913367;29;20214;-83
2021/01/17 15:56:05;;;;;;;16.35;13.05;;;3.20;99.90;;;;;;4913119;29;20231;-84
2021/01/17 15:58:31;;;;;;;14.40;13.07;;;3.20;99.90;;;;;;4912775;29;20208;-83
2021/01/17 16:00:57;;;;;;;15.82;13.35;;;3.10;99.90;;;;;;4912938;29;20207;-84
2021/01/17 16:03:25;;;;;;;17.08;13.13;;;3.20;99.90;;;;;;4912127;29;20243;-82
2021/01/17 16:05:57;;;;;;;15.15;13.50;;;3.10;99.90;;;;;;4912165;29;20250;-83
2021/01/17 16:08:23;;;;;;;16.58;12.55;;;3.20;99.90;;;;;;4910222;29;20282;-83
2021/01/17 16:10:49;;;;;;;16.30;11.75;;;3.10;99.90;;;;;;4911306;29;20682;-83
2021/01/17 16:13:15;;;;;;;15.45;11.82;;;3.10;99.90;;;;;;4910683;29;20279;-81
2021/01/17 16:15:41;;;;;;;19.75;14.02;;;3.20;99.90;;;;;;4911685;29;20770;-82
2021/01/17 16:18:08;;;;;;;16.70;13.18;;;3.20;99.90;;;;;;4911467;29;20212;-83
2021/01/17 16:20:35;;;;;;;24.13;20.48;;;3.10;99.90;;;;;;4910985;29;20696;-83
2021/01/17 16:23:01;;;;;;;21.83;15.07;;;3.10;99.90;;;;;;4910622;29;20215;-82
2021/01/17 16:25:27;;;;;;;18.85;13.27;;;2.90;99.90;;;;;;4911211;29;20207;-82
2021/01/17 16:27:54;;;;;;;29.08;21.75;;;2.80;99.90;;;;;;4910487;29;20227;-81
2021/01/17 16:30:21;;;;;;;23.70;18.80;;;2.60;99.90;;;;;;4909370;29;20222;-83
2021/01/17 16:32:48;;;;;;;17.63;15.70;;;2.50;99.90;;;;;;4908363;29;20222;-82
2021/01/17 16:35:15;;;;;;;19.17;16.38;;;2.50;99.90;;;;;;4907740;29;20220;-82
2021/01/17 16:37:42;;;;;;;11.60;10.50;;;2.30;99.90;;;;;;4910557;29;20211;-82
2021/01/17 16:40:10;;;;;;;16.67;14.15;;;2.20;99.90;;;;;;4908641;29;20204;-83
2021/01/17 16:42:37;;;;;;;26.08;14.55;;;2.20;99.90;;;;;;4908108;29;20220;-83
2021/01/17 16:45:04;;;;;;;54.08;37.25;;;2.10;99.90;;;;;;4908152;29;20212;-82
2021/01/17 16:47:30;;;;;;;15.60;13.45;;;2.10;99.90;;;;;;4907666;29;20234;-82
2021/01/17 16:49:56;;;;;;;21.27;16.58;;;2.10;99.90;;;;;;4908353;29;20251;-82
2021/01/17 16:52:23;;;;;;;12.98;11.60;;;2.00;99.90;;;;;;4908859;29;20212;-82
2021/01/17 16:54:50;;;;;;;12.10;11.00;;;2.00;99.90;;;;;;4908774;29;20218;-83
2021/01/17 16:57:16;;;;;;;14.13;12.60;;;2.00;99.90;;;;;;4908356;29;20259;-82
2021/01/17 16:59:44;;;;;;;12.30;9.13;;;2.00;99.90;;;;;;4908747;29;20310;-82
2021/01/17 17:02:13;;;;;;;14.77;11.20;;;2.00;99.90;;;;;;4908224;29;20211;-81
2021/01/17 17:04:39;;;;;;;14.93;12.88;;;2.00;99.90;;;;;;4908570;29;20217;-82
2021/01/17 17:07:06;;;;;;;15.05;11.38;;;2.00;99.90;;;;;;4907544;29;20231;-81
2021/01/17 17:09:33;;;;;;;14.13;11.63;;;2.00;99.90;;;;;;4908192;29;20282;-81
2021/01/17 17:12:01;;;;;;;10.50;9.35;;;1.90;99.90;;;;;;4909808;29;20263;-81
2021/01/17 17:14:27;;;;;;;11.52;8.85;;;1.90;99.90;;;;;;4909265;29;20211;-80
2021/01/17 17:16:54;;;;;;;14.02;10.52;;;1.90;99.90;;;;;;4908790;29;20231;-81
2021/01/17 17:19:20;;;;;;;12.05;10.85;;;1.90;99.90;;;;;;4907703;29;20263;-81
2021/01/17 17:21:46;;;;;;;12.93;11.63;;;1.80;99.90;;;;;;4906534;29;20215;-82
2021/01/17 17:24:13;;;;;;;12.18;9.00;;;1.90;99.90;;;;;;4908083;29;20211;-82
2021/01/17 17:26:40;;;;;;;12.38;11.27;;;2.00;99.90;;;;;;4908752;29;20239;-81
2021/01/17 17:29:08;;;;;;;11.00;9.90;;;2.00;99.90;;;;;;4907034;29;20227;-81
2021/01/17 17:31:42;;;;;;;9.52;8.63;;;2.00;99.90;;;;;;4908658;29;20215;-81
2021/01/17 17:34:08;;;;;;;9.25;8.35;;;2.00;99.90;;;;;;4908911;29;20215;-81
2021/01/17 17:36:34;;;;;;;12.70;9.60;;;2.00;99.90;;;;;;4908611;29;20235;-81
2021/01/17 17:39:00;;;;;;;10.77;9.75;;;1.90;99.90;;;;;;4910345;29;20211;-79
2021/01/17 17:41:27;;;;;;;10.15;9.32;;;1.80;99.90;;;;;;4907292;29;20218;-82
2021/01/17 17:43:53;;;;;;;11.23;10.10;;;1.80;99.90;;;;;;4907123;29;20215;-81
2021/01/17 17:46:24;;;;;;;11.45;10.40;;;1.80;99.90;;;;;;4910360;29;20303;-79
2021/01/17 17:48:51;;;;;;;16.15;12.63;;;1.80;99.90;;;;;;4908082;29;20238;-80
2021/01/17 17:51:18;;;;;;;16.90;13.48;;;1.80;99.90;;;;;;4909832;29;20222;-80
2021/01/17 17:53:44;;;;;;;12.35;10.10;;;1.80;99.90;;;;;;4909618;29;20215;-80
2021/01/17 17:56:11;;;;;;;11.35;10.18;;;1.90;99.90;;;;;;4910219;29;20231;-80
2021/01/17 17:58:37;;;;;;;16.40;14.57;;;1.80;99.90;;;;;;4909455;29;20626;-80
2021/01/17 18:01:05;;;;;;;12.43;10.52;;;1.90;99.90;;;;;;4909286;29;20259;-79
2021/01/17 18:03:32;;;;;;;11.65;10.45;;;2.00;99.90;;;;;;4907972;29;20208;-79
2021/01/17 18:05:58;;;;;;;8.27;7.47;;;1.90;99.90;;;;;;4911650;29;20243;-80
2021/01/17 18:08:25;;;;;;;10.15;9.15;;;1.90;99.90;;;;;;4910102;29;20228;-81
2021/01/17 18:10:52;;;;;;;12.07;10.73;;;1.90;99.90;;;;;;4910576;29;20223;-80
2021/01/17 18:13:18;;;;;;;11.65;10.45;;;1.90;99.90;;;;;;4907462;29;20267;-81
2021/01/17 18:15:48;;;;;;;13.88;12.52;;;2.00;99.90;;;;;;4907763;29;20235;-80
2021/01/17 18:18:14;;;;;;;15.63;12.20;;;2.10;99.90;;;;;;4906729;29;20234;-80
2021/01/17 18:20:41;;;;;;;12.13;11.07;;;2.10;99.90;;;;;;4907992;29;20223;-81
2021/01/17 18:23:07;;;;;;;23.48;16.92;;;2.10;99.90;;;;;;4909423;29;20701;-80
2021/01/17 18:25:34;;;;;;;22.27;16.52;;;2.10;99.90;;;;;;4908991;29;20231;-79
2021/01/17 18:28:00;;;;;;;20.58;11.13;;;2.10;99.90;;;;;;4908648;29;20240;-79
2021/01/17 18:30:26;;;;;;;15.68;10.10;;;2.10;99.90;;;;;;4908698;29;20211;-79
2021/01/17 18:32:52;;;;;;;17.55;12.25;;;2.10;99.90;;;;;;4909521;29;20239;-80
2021/01/17 18:35:19;;;;;;;12.50;11.15;;;2.00;99.90;;;;;;4906175;29;20211;-79
2021/01/17 18:37:48;;;;;;;11.45;10.15;;;2.00;99.90;;;;;;4906323;29;20250;-79
2021/01/17 18:40:16;;;;;;;10.25;8.93;;;2.00;99.90;;;;;;4906019;29;20236;-79
2021/01/17 18:42:42;;;;;;;13.90;8.85;;;2.20;99.90;;;;;;4904871;29;20222;-79
2021/01/17 18:45:10;;;;;;;15.98;12.60;;;2.30;99.90;;;;;;4905846;29;20248;-79
2021/01/17 18:47:36;;;;;;;15.25;11.48;;;2.40;99.90;;;;;;4906359;29;20216;-79
2021/01/17 18:50:03;;;;;;;9.70;8.60;;;2.30;99.90;;;;;;4907116;29;20238;-80
2021/01/17 18:52:30;;;;;;;10.82;7.60;;;2.30;99.90;;;;;;4904302;29;20302;-79
2021/01/17 18:54:57;;;;;;;10.27;8.93;;;2.20;99.90;;;;;;4903539;29;20207;-79
2021/01/17 18:57:24;;;;;;;8.55;7.45;;;2.20;99.90;;;;;;4907434;29;20235;-80
2021/01/17 18:59:50;;;;;;;10.07;9.00;;;2.20;99.90;;;;;;4905670;29;20237;-80
2021/01/17 19:02:16;;;;;;;14.65;13.23;;;2.20;99.90;;;;;;4910294;29;20285;-80
2021/01/17 19:04:43;;;;;;;14.40;12.88;;;2.20;99.90;;;;;;4915713;29;20211;-80
2021/01/17 19:07:09;;;;;;;11.75;10.00;;;2.30;99.90;;;;;;4915825;29;20231;-80
2021/01/17 19:09:35;;;;;;;14.75;11.38;;;2.30;99.90;;;;;;4913349;29;20247;-79
2021/01/17 19:12:03;;;;;;;14.55;13.02;;;2.20;99.90;;;;;;4912913;29;20207;-79
2021/01/17 19:14:30;;;;;;;10.25;8.85;;;2.20;99.90;;;;;;4912260;29;20677;-80
2021/01/17 19:16:56;;;;;;;20.75;17.35;;;2.10;99.90;;;;;;4913168;29;20287;-79
2021/01/17 19:19:22;;;;;;;10.80;9.77;;;2.20;99.90;;;;;;4913763;29;20222;-79
2021/01/17 19:21:49;;;;;;;11.35;9.02;;;2.40;99.90;;;;;;4914010;29;20219;-80
2021/01/17 19:24:15;;;;;;;13.73;10.57;;;2.50;99.90;;;;;;4914254;29;20222;-80
2021/01/17 19:26:41;;;;;;;8.20;7.28;;;2.50;99.90;;;;;;4915022;29;20231;-80
2021/01/17 19:29:08;;;;;;;10.20;9.07;;;2.40;99.90;;;;;;4915181;29;20231;-79
2021/01/17 19:31:35;;;;;;;12.73;9.25;;;2.40;99.90;;;;;;4915036;29;20698;-80
2021/01/17 19:34:01;;;;;;;11.55;7.80;;;2.60;99.90;;;;;;4914808;29;20229;-79
2021/01/17 19:36:27;;;;;;;10.77;9.68;;;2.60;99.90;;;;;;4914142;29;20227;-80
2021/01/17 19:38:53;;;;;;;9.40;7.95;;;2.50;99.90;;;;;;4914134;29;20203;-79
2021/01/17 19:41:19;;;;;;;10.52;9.48;;;2.70;99.90;;;;;;4914592;29;20211;-80
2021/01/17 19:43:45;;;;;;;9.48;8.10;;;2.80;99.90;;;;;;4913066;29;20214;-79
2021/01/17 19:46:16;;;;;;;11.23;9.93;;;2.80;99.90;;;;;;4914057;29;20236;-81
2021/01/17 19:48:43;;;;;;;10.05;9.05;;;2.90;99.90;;;;;;4913596;29;20227;-80
2021/01/17 19:51:13;;;;;;;10.73;9.82;;;3.00;99.90;;;;;;4914152;29;20211;-80
2021/01/17 19:53:39;;;;;;;10.13;8.77;;;3.10;99.90;;;;;;4911921;29;20270;-80
2021/01/17 19:56:06;;;;;;;11.95;10.75;;;3.10;99.90;;;;;;4914214;29;20236;-79
2021/01/17 19:58:32;;;;;;;10.00;9.00;;;3.10;99.90;;;;;;4913900;29;20263;-81
2021/01/17 20:00:58;;;;;;;10.43;8.98;;;3.10;99.90;;;;;;4915077;29;20282;-81
2021/01/17 20:03:25;;;;;;;10.40;9.40;;;3.10;99.90;;;;;;4915030;29;20222;-81
2021/01/17 20:05:51;;;;;;;9.40;8.45;;;3.00;99.90;;;;;;4915463;29;20772;-80
2021/01/17 20:08:18;;;;;;;9.93;8.65;;;3.10;99.90;;;;;;4915836;29;20603;-81
2021/01/17 20:10:45;;;;;;;9.13;8.10;;;3.10;99.90;;;;;;4915785;29;20225;-79
2021/01/17 20:13:11;;;;;;;9.20;8.05;;;3.20;99.90;;;;;;4914863;29;20212;-81
2021/01/17 20:15:39;;;;;;;9.05;7.90;;;3.10;99.90;;;;;;4916557;29;20231;-80
2021/01/17 20:18:05;;;;;;;11.43;9.05;;;3.10;99.90;;;;;;4916726;29;20215;-80
2021/01/17 20:20:32;;;;;;;8.70;7.90;;;3.20;99.90;;;;;;4915900;29;20215;-80
2021/01/17 20:23:00;;;;;;;10.15;7.88;;;3.20;99.90;;;;;;4914938;29;20211;-80
2021/01/17 20:25:26;;;;;;;9.02;6.78;;;3.20;99.90;;;;;;4915652;29;20215;-80
2021/01/17 20:27:52;;;;;;;7.25;6.75;;;3.30;99.90;;;;;;4915076;29;20211;-81
2021/01/17 20:30:19;;;;;;;9.02;8.13;;;3.20;99.90;;;;;;4915680;29;20342;-81
2021/01/17 20:32:46;;;;;;;10.50;8.15;;;3.20;99.90;;;;;;4915089;29;20211;-81
2021/01/17 20:35:14;;;;;;;7.88;7.03;;;3.30;99.90;;;;;;4915195;29;20212;-81
2021/01/17 20:37:41;;;;;;;10.68;6.90;;;3.10;99.90;;;;;;4915495;29;20239;-80
2021/01/17 20:40:08;;;;;;;7.05;6.03;;;3.00;99.90;;;;;;4915507;29;20210;-81
2021/01/17 20:42:34;;;;;;;8.02;7.25;;;3.10;99.90;;;;;;4914533;29;20226;-80
2021/01/17 20:45:00;;;;;;;7.80;6.88;;;3.10;99.90;;;;;;4914169;29;20211;-80
2021/01/17 20:47:27;;;;;;;8.93;7.57;;;3.00;99.90;;;;;;4914273;29;20234;-79
2021/01/17 20:49:53;;;;;;;8.20;7.40;;;2.90;99.90;;;;;;4913836;29;20255;-80
2021/01/17 20:52:19;;;;;;;8.43;7.63;;;2.70;99.90;;;;;;4914675;29;20219;-81
2021/01/17 20:54:46;;;;;;;8.65;7.70;;;2.60;99.90;;;;;;4915308;29;20215;-80
2021/01/17 20:57:13;;;;;;;8.57;7.68;;;2.60;99.90;;;;;;4914687;29;20717;-80
2021/01/17 20:59:39;;;;;;;8.68;7.82;;;2.60;99.90;;;;;;4914530;29;20203;-82
2021/01/17 21:02:05;;;;;;;10.60;7.45;;;2.70;99.90;;;;;;4914667;29;20218;-80
2021/01/17 21:04:32;;;;;;;6.53;5.90;;;2.60;99.90;;;;;;4915147;29;20601;-81
2021/01/17 21:06:58;;;;;;;8.02;7.18;;;2.70;99.90;;;;;;4913868;29;20267;-81
2021/01/17 21:09:25;;;;;;;8.75;7.07;;;2.70;99.90;;;;;;4913451;29;20238;-81
2021/01/17 21:11:52;;;;;;;9.52;7.57;;;2.60;99.90;;;;;;4913102;29;20207;-79
2021/01/17 21:14:18;;;;;;;7.63;6.05;;;2.50;99.90;;;;;;4917351;29;20211;-80
2021/01/17 21:16:45;;;;;;;17.90;13.90;;;2.40;99.90;;;;;;4918297;29;20245;-80
2021/01/17 21:19:11;;;;;;;18.88;11.80;;;2.30;99.90;;;;;;4914519;29;20222;-81
2021/01/17 21:21:37;;;;;;;12.70;7.78;;;2.30;99.90;;;;;;4911736;29;20215;-80
2021/01/17 21:24:04;;;;;;;10.88;5.95;;;2.30;99.90;;;;;;4909691;29;20240;-80
2021/01/17 21:26:30;;;;;;;14.07;11.43;;;2.20;99.90;;;;;;4908566;29;20235;-80
2021/01/17 21:28:57;;;;;;;7.70;6.70;;;2.20;99.90;;;;;;4899351;29;20227;-80
2021/01/17 21:31:23;;;;;;;8.75;7.85;;;2.20;99.90;;;;;;4901426;29;20207;-80
2021/01/17 21:33:49;;;;;;;5.93;5.32;;;2.10;99.90;;;;;;4906059;29;20207;-78
2021/01/17 21:36:17;;;;;;;7.15;6.10;;;2.10;99.90;;;;;;4899817;29;20381;-79
2021/01/17 21:38:46;;;;;;;5.97;5.45;;;2.00;99.90;;;;;;4898754;29;20195;-80
2021/01/17 21:41:12;;;;;;;7.75;6.95;;;2.00;99.90;;;;;;4896727;29;20260;-80
2021/01/17 21:43:38;;;;;;;7.45;6.15;;;2.00;99.90;;;;;;4896317;29;20204;-80
2021/01/17 21:46:05;;;;;;;7.00;5.63;;;1.90;99.90;;;;;;4895378;29;20230;-80
2021/01/17 21:48:32;;;;;;;9.95;8.82;;;1.90;99.90;;;;;;4894960;29;20220;-79
2021/01/17 21:50:58;;;;;;;6.95;5.32;;;2.00;99.90;;;;;;4897576;29;20214;-78
2021/01/17 21:53:24;;;;;;;10.23;7.25;;;2.00;99.90;;;;;;4899028;29;20649;-79
2021/01/17 21:55:50;;;;;;;8.82;5.45;;;2.00;99.90;;;;;;4895568;29;20610;-79
2021/01/17 21:58:16;;;;;;;6.28;5.60;;;1.90;99.90;;;;;;4900524;29;20207;-80
2021/01/17 22:00:42;;;;;;;5.70;5.20;;;2.00;99.90;;;;;;4897842;29;20204;-78
2021/01/17 22:03:09;;;;;;;7.45;5.50;;;1.90;99.90;;;;;;4898593;29;20208;-80
2021/01/17 22:05:36;;;;;;;12.25;6.88;;;1.90;99.90;;;;;;4899875;29;20223;-80
2021/01/17 22:08:03;;;;;;;7.43;6.72;;;1.90;99.90;;;;;;4904080;29;20220;-78
2021/01/17 22:10:30;;;;;;;12.55;7.15;;;1.90;99.90;;;;;;4899579;29;20232;-79
2021/01/17 22:12:56;;;;;;;12.23;7.85;;;1.90;99.90;;;;;;4889294;29;20200;-79
2021/01/17 22:15:22;;;;;;;7.75;6.55;;;2.00;99.90;;;;;;4890203;29;20215;-77
2021/01/17 22:17:53;;;;;;;7.50;6.88;;;2.10;99.90;;;;;;4889894;29;20208;-79
2021/01/17 22:20:21;;;;;;;10.00;6.25;;;2.10;99.90;;;;;;4890511;29;20216;-80
2021/01/17 22:22:49;;;;;;;10.27;6.90;;;2.10;99.90;;;;;;4890786;29;20219;-80
2021/01/17 22:25:16;;;;;;;8.45;6.55;;;2.00;99.90;;;;;;4888752;29;20212;-79
2021/01/17 22:27:43;;;;;;;8.85;6.32;;;2.00;99.90;;;;;;4889246;29;20637;-78
2021/01/17 22:30:11;;;;;;;7.22;6.50;;;2.10;99.90;;;;;;4888934;29;20256;-79
2021/01/17 22:32:40;;;;;;;8.50;5.68;;;2.10;99.90;;;;;;4889267;29;20216;-80
2021/01/17 22:35:07;;;;;;;7.95;6.22;;;2.10;99.90;;;;;;4890213;29;20215;-79
2021/01/17 22:37:35;;;;;;;6.97;6.35;;;2.20;99.90;;;;;;4889348;29;20232;-79
2021/01/17 22:40:02;;;;;;;6.65;6.05;;;2.20;99.90;;;;;;4889433;29;20298;-79